sensor_id;sensor_type;location;lat;lon;timestamp;P1;durP1;ratioP1;P2;durP2;ratioP2
35959;SDS011;22043;50.970;7.192;2022-08-01T00:01:54;10.73;;;5.45;;
35959;SDS011;22043;50.970;7.192;2022-08-01T00:04:19;7.82;;;4.75;;
35959;SDS011;22043;50.970;7.192;2022-08-01T00:06:45;11.13;;;5.15;;
35959;SDS011;22043;50.970;7.192;2022-08-01T00:09:11;7.40;;;4.65;;
35959;SDS011;22043;50.970;7.192;2022-08-01T00:11:36;8.02;;;3.80;;
35959;SDS011;22043;50.970;7.192;2022-08-01T00:14:02;8.23;;;3.80;;
35959;SDS011;22043;50.970;7.192;2022-08-01T00:16:28;7.60;;;3.70;;
35959;SDS011;22043;50.970;7.192;2022-08-01T00:18:54;11.10;;;4.43;;
35959;SDS011;22043;50.970;7.192;2022-08-01T00:21:20;6.22;;;3.42;;
35959;SDS011;22043;50.970;7.192;2022-08-01T00:23:46;7.15;;;3.65;;
35959;SDS011;22043;50.970;7.192;2022-08-01T00:26:12;7.80;;;4.20;;
35959;SDS011;22043;50.970;7.192;2022-08-01T00:28:38;5.35;;;3.13;;
35959;SDS011;22043;50.970;7.192;2022-08-01T00:31:04;7.72;;;3.20;;
35959;SDS011;22043;50.970;7.192;2022-08-01T00:33:30;4.15;;;2.50;;
35959;SDS011;22043;50.970;7.192;2022-08-01T00:35:55;4.50;;;2.95;;
35959;SDS011;22043;50.970;7.192;2022-08-01T00:38:21;4.95;;;3.00;;
35959;SDS011;22043;50.970;7.192;2022-08-01T00:40:47;6.95;;;3.75;;
35959;SDS011;22043;50.970;7.192;2022-08-01T00:43:13;7.47;;;3.13;;
35959;SDS011;22043;50.970;7.192;2022-08-01T00:45:39;6.32;;;3.67;;
35959;SDS011;22043;50.970;7.192;2022-08-01T00:48:05;7.75;;;3.50;;
35959;SDS011;22043;50.970;7.192;2022-08-01T00:50:31;9.95;;;4.30;;
35959;SDS011;22043;50.970;7.192;2022-08-01T00:52:58;6.15;;;4.22;;
35959;SDS011;22043;50.970;7.192;2022-08-01T00:55:24;7.28;;;4.00;;
35959;SDS011;22043;50.970;7.192;2022-08-01T00:57:52;6.47;;;4.18;;
35959;SDS011;22043;50.970;7.192;2022-08-01T01:00:18;9.07;;;4.07;;
35959;SDS011;22043;50.970;7.192;2022-08-01T01:02:43;6.60;;;3.60;;
35959;SDS011;22043;50.970;7.192;2022-08-01T01:05:09;5.80;;;3.00;;
35959;SDS011;22043;50.970;7.192;2022-08-01T01:07:40;6.60;;;3.00;;
35959;SDS011;22043;50.970;7.192;2022-08-01T01:13:15;6.97;;;2.95;;
35959;SDS011;22043;50.970;7.192;2022-08-01T01:15:53;5.80;;;3.00;;
35959;SDS011;22043;50.970;7.192;2022-08-01T01:18:24;6.55;;;2.92;;
35959;SDS011;22043;50.970;7.192;2022-08-01T01:23:50;5.60;;;2.63;;
35959;SDS011;22043;50.970;7.192;2022-08-01T01:31:47;5.57;;;3.10;;
35959;SDS011;22043;50.970;7.192;2022-08-01T01:34:22;7.93;;;3.65;;
35959;SDS011;22043;50.970;7.192;2022-08-01T01:36:49;5.50;;;3.30;;
35959;SDS011;22043;50.970;7.192;2022-08-01T01:41:43;4.07;;;2.67;;
35959;SDS011;22043;50.970;7.192;2022-08-01T01:44:10;4.65;;;2.97;;
35959;SDS011;22043;50.970;7.192;2022-08-01T01:46:36;4.07;;;2.88;;
35959;SDS011;22043;50.970;7.192;2022-08-01T01:49:02;5.00;;;3.00;;
35959;SDS011;22043;50.970;7.192;2022-08-01T01:51:29;5.70;;;3.38;;
35959;SDS011;22043;50.970;7.192;2022-08-01T01:53:56;6.20;;;3.78;;
35959;SDS011;22043;50.970;7.192;2022-08-01T01:56:23;9.07;;;3.87;;
35959;SDS011;22043;50.970;7.192;2022-08-01T01:58:54;5.28;;;3.70;;
35959;SDS011;22043;50.970;7.192;2022-08-01T02:01:21;6.53;;;4.10;;
35959;SDS011;22043;50.970;7.192;2022-08-01T02:03:49;9.63;;;4.15;;
35959;SDS011;22043;50.970;7.192;2022-08-01T02:06:18;6.60;;;3.90;;
35959;SDS011;22043;50.970;7.192;2022-08-01T02:11:12;8.88;;;4.05;;
35959;SDS011;22043;50.970;7.192;2022-08-01T02:13:49;8.52;;;4.50;;
35959;SDS011;22043;50.970;7.192;2022-08-01T02:16:26;5.78;;;3.88;;
35959;SDS011;22043;50.970;7.192;2022-08-01T02:19:04;8.27;;;3.97;;
35959;SDS011;22043;50.970;7.192;2022-08-01T02:21:32;7.95;;;4.20;;
35959;SDS011;22043;50.970;7.192;2022-08-01T02:24:07;8.23;;;4.05;;
35959;SDS011;22043;50.970;7.192;2022-08-01T02:26:39;7.13;;;4.40;;
35959;SDS011;22043;50.970;7.192;2022-08-01T02:29:12;7.47;;;3.97;;
35959;SDS011;22043;50.970;7.192;2022-08-01T02:31:42;6.30;;;3.90;;
35959;SDS011;22043;50.970;7.192;2022-08-01T02:34:13;9.05;;;4.10;;
35959;SDS011;22043;50.970;7.192;2022-08-01T02:36:43;9.88;;;4.30;;
35959;SDS011;22043;50.970;7.192;2022-08-01T02:39:12;6.65;;;3.70;;
35959;SDS011;22043;50.970;7.192;2022-08-01T02:41:41;8.23;;;4.57;;
35959;SDS011;22043;50.970;7.192;2022-08-01T02:44:10;10.10;;;4.13;;
35959;SDS011;22043;50.970;7.192;2022-08-01T02:46:51;6.60;;;4.65;;
35959;SDS011;22043;50.970;7.192;2022-08-01T02:49:21;5.90;;;4.13;;
35959;SDS011;22043;50.970;7.192;2022-08-01T02:51:51;6.60;;;3.72;;
35959;SDS011;22043;50.970;7.192;2022-08-01T02:54:19;7.53;;;4.03;;
35959;SDS011;22043;50.970;7.192;2022-08-01T02:56:50;9.05;;;4.53;;
35959;SDS011;22043;50.970;7.192;2022-08-01T02:59:21;7.50;;;4.60;;
35959;SDS011;22043;50.970;7.192;2022-08-01T03:01:51;7.05;;;4.22;;
35959;SDS011;22043;50.970;7.192;2022-08-01T03:04:22;9.13;;;4.60;;
35959;SDS011;22043;50.970;7.192;2022-08-01T03:06:49;5.47;;;3.92;;
35959;SDS011;22043;50.970;7.192;2022-08-01T03:09:17;7.13;;;4.20;;
35959;SDS011;22043;50.970;7.192;2022-08-01T03:11:45;7.90;;;4.20;;
35959;SDS011;22043;50.970;7.192;2022-08-01T03:14:13;6.78;;;4.18;;
35959;SDS011;22043;50.970;7.192;2022-08-01T03:19:07;8.88;;;4.05;;
35959;SDS011;22043;50.970;7.192;2022-08-01T03:21:35;8.27;;;4.18;;
35959;SDS011;22043;50.970;7.192;2022-08-01T03:24:03;6.53;;;4.38;;
35959;SDS011;22043;50.970;7.192;2022-08-01T03:26:33;7.60;;;3.90;;
35959;SDS011;22043;50.970;7.192;2022-08-01T03:29:05;6.95;;;4.82;;
35959;SDS011;22043;50.970;7.192;2022-08-01T03:31:32;8.27;;;4.30;;
35959;SDS011;22043;50.970;7.192;2022-08-01T03:34:00;7.13;;;4.47;;
35959;SDS011;22043;50.970;7.192;2022-08-01T03:36:26;9.65;;;4.90;;
35959;SDS011;22043;50.970;7.192;2022-08-01T03:38:56;16.92;;;4.95;;
35959;SDS011;22043;50.970;7.192;2022-08-01T03:41:37;7.03;;;4.10;;
35959;SDS011;22043;50.970;7.192;2022-08-01T03:44:10;9.25;;;4.57;;
35959;SDS011;22043;50.970;7.192;2022-08-01T03:46:42;7.93;;;4.63;;
35959;SDS011;22043;50.970;7.192;2022-08-01T03:49:13;7.93;;;4.80;;
35959;SDS011;22043;50.970;7.192;2022-08-01T03:51:42;9.43;;;5.00;;
35959;SDS011;22043;50.970;7.192;2022-08-01T03:54:13;7.70;;;5.40;;
35959;SDS011;22043;50.970;7.192;2022-08-01T03:56:41;11.18;;;5.00;;
35959;SDS011;22043;50.970;7.192;2022-08-01T03:59:08;8.23;;;4.78;;
35959;SDS011;22043;50.970;7.192;2022-08-01T04:01:35;10.60;;;5.40;;
35959;SDS011;22043;50.970;7.192;2022-08-01T04:04:02;8.98;;;5.40;;
35959;SDS011;22043;50.970;7.192;2022-08-01T04:06:30;7.90;;;4.82;;
35959;SDS011;22043;50.970;7.192;2022-08-01T04:08:56;7.93;;;4.93;;
35959;SDS011;22043;50.970;7.192;2022-08-01T04:11:23;9.82;;;5.38;;
35959;SDS011;22043;50.970;7.192;2022-08-01T04:13:51;12.45;;;5.78;;
35959;SDS011;22043;50.970;7.192;2022-08-01T04:16:18;10.05;;;5.68;;
35959;SDS011;22043;50.970;7.192;2022-08-01T04:18:44;10.38;;;5.60;;
35959;SDS011;22043;50.970;7.192;2022-08-01T04:21:10;8.93;;;5.47;;
35959;SDS011;22043;50.970;7.192;2022-08-01T04:23:37;8.30;;;5.22;;
35959;SDS011;22043;50.970;7.192;2022-08-01T04:26:05;8.18;;;5.43;;
35959;SDS011;22043;50.970;7.192;2022-08-01T04:28:31;9.60;;;5.90;;
35959;SDS011;22043;50.970;7.192;2022-08-01T04:31:01;12.93;;;5.82;;
35959;SDS011;22043;50.970;7.192;2022-08-01T04:33:28;11.43;;;6.35;;
35959;SDS011;22043;50.970;7.192;2022-08-01T04:35:56;10.07;;;6.15;;
35959;SDS011;22043;50.970;7.192;2022-08-01T04:38:25;10.48;;;5.90;;
35959;SDS011;22043;50.970;7.192;2022-08-01T04:40:53;11.40;;;5.47;;
35959;SDS011;22043;50.970;7.192;2022-08-01T04:43:20;9.27;;;5.15;;
35959;SDS011;22043;50.970;7.192;2022-08-01T04:45:47;8.97;;;5.53;;
35959;SDS011;22043;50.970;7.192;2022-08-01T04:48:16;9.65;;;5.43;;
35959;SDS011;22043;50.970;7.192;2022-08-01T04:50:44;12.18;;;6.45;;
35959;SDS011;22043;50.970;7.192;2022-08-01T04:53:14;10.30;;;5.25;;
35959;SDS011;22043;50.970;7.192;2022-08-01T04:55:44;10.98;;;6.25;;
35959;SDS011;22043;50.970;7.192;2022-08-01T04:58:11;11.10;;;6.13;;
35959;SDS011;22043;50.970;7.192;2022-08-01T05:00:37;10.77;;;5.70;;
35959;SDS011;22043;50.970;7.192;2022-08-01T05:03:03;11.35;;;6.45;;
35959;SDS011;22043;50.970;7.192;2022-08-01T05:05:29;10.20;;;5.45;;
35959;SDS011;22043;50.970;7.192;2022-08-01T05:07:55;12.88;;;6.97;;
35959;SDS011;22043;50.970;7.192;2022-08-01T05:10:21;11.63;;;6.97;;
35959;SDS011;22043;50.970;7.192;2022-08-01T05:12:47;10.05;;;6.80;;
35959;SDS011;22043;50.970;7.192;2022-08-01T05:15:12;10.60;;;6.38;;
35959;SDS011;22043;50.970;7.192;2022-08-01T05:17:38;10.23;;;6.95;;
35959;SDS011;22043;50.970;7.192;2022-08-01T05:20:04;15.50;;;7.65;;
35959;SDS011;22043;50.970;7.192;2022-08-01T05:22:31;13.50;;;7.13;;
35959;SDS011;22043;50.970;7.192;2022-08-01T05:24:57;13.60;;;6.97;;
35959;SDS011;22043;50.970;7.192;2022-08-01T05:27:24;12.02;;;7.03;;
35959;SDS011;22043;50.970;7.192;2022-08-01T05:29:50;14.57;;;8.65;;
35959;SDS011;22043;50.970;7.192;2022-08-01T05:32:16;11.07;;;7.22;;
35959;SDS011;22043;50.970;7.192;2022-08-01T05:34:42;12.73;;;7.47;;
35959;SDS011;22043;50.970;7.192;2022-08-01T05:37:08;14.48;;;7.93;;
35959;SDS011;22043;50.970;7.192;2022-08-01T05:39:33;15.57;;;7.82;;
35959;SDS011;22043;50.970;7.192;2022-08-01T05:41:59;14.27;;;8.10;;
35959;SDS011;22043;50.970;7.192;2022-08-01T05:44:25;15.63;;;8.52;;
35959;SDS011;22043;50.970;7.192;2022-08-01T05:46:50;12.80;;;8.00;;
35959;SDS011;22043;50.970;7.192;2022-08-01T05:49:16;15.20;;;7.95;;
35959;SDS011;22043;50.970;7.192;2022-08-01T05:51:42;18.40;;;8.40;;
35959;SDS011;22043;50.970;7.192;2022-08-01T05:54:08;17.23;;;10.00;;
35959;SDS011;22043;50.970;7.192;2022-08-01T05:56:33;17.80;;;9.48;;
35959;SDS011;22043;50.970;7.192;2022-08-01T05:58:59;24.95;;;10.18;;
35959;SDS011;22043;50.970;7.192;2022-08-01T06:01:25;19.17;;;10.00;;
35959;SDS011;22043;50.970;7.192;2022-08-01T06:03:51;18.50;;;10.23;;
35959;SDS011;22043;50.970;7.192;2022-08-01T06:06:19;16.17;;;10.20;;
35959;SDS011;22043;50.970;7.192;2022-08-01T06:08:48;18.15;;;11.07;;
35959;SDS011;22043;50.970;7.192;2022-08-01T06:11:13;20.20;;;11.07;;
35959;SDS011;22043;50.970;7.192;2022-08-01T06:13:39;22.70;;;12.13;;
35959;SDS011;22043;50.970;7.192;2022-08-01T06:16:05;17.00;;;11.00;;
35959;SDS011;22043;50.970;7.192;2022-08-01T06:18:30;17.95;;;10.23;;
35959;SDS011;22043;50.970;7.192;2022-08-01T06:20:56;19.85;;;10.68;;
35959;SDS011;22043;50.970;7.192;2022-08-01T06:23:22;18.10;;;10.77;;
35959;SDS011;22043;50.970;7.192;2022-08-01T06:25:47;18.65;;;11.35;;
35959;SDS011;22043;50.970;7.192;2022-08-01T06:28:16;15.93;;;10.63;;
35959;SDS011;22043;50.970;7.192;2022-08-01T06:30:42;18.10;;;11.15;;
35959;SDS011;22043;50.970;7.192;2022-08-01T06:33:07;18.98;;;11.65;;
35959;SDS011;22043;50.970;7.192;2022-08-01T06:35:33;18.15;;;10.63;;
35959;SDS011;22043;50.970;7.192;2022-08-01T06:37:59;18.70;;;10.82;;
35959;SDS011;22043;50.970;7.192;2022-08-01T06:40:25;16.63;;;10.68;;
35959;SDS011;22043;50.970;7.192;2022-08-01T06:42:50;16.67;;;9.77;;
35959;SDS011;22043;50.970;7.192;2022-08-01T06:45:16;16.27;;;9.93;;
35959;SDS011;22043;50.970;7.192;2022-08-01T06:47:42;17.67;;;9.70;;
35959;SDS011;22043;50.970;7.192;2022-08-01T06:50:11;14.10;;;9.32;;
35959;SDS011;22043;50.970;7.192;2022-08-01T06:52:39;15.82;;;9.98;;
35959;SDS011;22043;50.970;7.192;2022-08-01T06:55:04;16.13;;;10.77;;
35959;SDS011;22043;50.970;7.192;2022-08-01T06:57:30;16.52;;;10.10;;
35959;SDS011;22043;50.970;7.192;2022-08-01T06:59:56;13.95;;;9.25;;
35959;SDS011;22043;50.970;7.192;2022-08-01T07:02:22;15.80;;;9.43;;
35959;SDS011;22043;50.970;7.192;2022-08-01T07:04:48;15.55;;;10.00;;
35959;SDS011;22043;50.970;7.192;2022-08-01T07:07:14;14.07;;;9.20;;
35959;SDS011;22043;50.970;7.192;2022-08-01T07:09:40;18.85;;;9.80;;
35959;SDS011;22043;50.970;7.192;2022-08-01T07:12:08;14.55;;;9.20;;
35959;SDS011;22043;50.970;7.192;2022-08-01T07:14:34;14.40;;;9.70;;
35959;SDS011;22043;50.970;7.192;2022-08-01T07:17:00;15.00;;;9.63;;
35959;SDS011;22043;50.970;7.192;2022-08-01T07:19:25;13.70;;;8.82;;
35959;SDS011;22043;50.970;7.192;2022-08-01T07:21:52;12.88;;;8.93;;
35959;SDS011;22043;50.970;7.192;2022-08-01T07:24:18;11.35;;;8.75;;
35959;SDS011;22043;50.970;7.192;2022-08-01T07:26:44;14.27;;;9.23;;
35959;SDS011;22043;50.970;7.192;2022-08-01T07:29:12;11.82;;;8.10;;
35959;SDS011;22043;50.970;7.192;2022-08-01T07:31:37;12.77;;;8.85;;
35959;SDS011;22043;50.970;7.192;2022-08-01T07:34:03;12.88;;;7.63;;
35959;SDS011;22043;50.970;7.192;2022-08-01T07:36:29;9.50;;;7.45;;
35959;SDS011;22043;50.970;7.192;2022-08-01T07:38:55;11.07;;;7.65;;
35959;SDS011;22043;50.970;7.192;2022-08-01T07:41:22;15.10;;;8.73;;
35959;SDS011;22043;50.970;7.192;2022-08-01T07:43:47;11.18;;;7.78;;
35959;SDS011;22043;50.970;7.192;2022-08-01T07:46:14;9.82;;;7.25;;
35959;SDS011;22043;50.970;7.192;2022-08-01T07:48:40;10.30;;;7.57;;
35959;SDS011;22043;50.970;7.192;2022-08-01T07:51:06;11.60;;;7.93;;
35959;SDS011;22043;50.970;7.192;2022-08-01T07:53:33;15.77;;;8.38;;
35959;SDS011;22043;50.970;7.192;2022-08-01T07:55:59;13.63;;;9.02;;
35959;SDS011;22043;50.970;7.192;2022-08-01T07:58:24;13.43;;;9.27;;
35959;SDS011;22043;50.970;7.192;2022-08-01T08:00:50;12.27;;;8.55;;
35959;SDS011;22043;50.970;7.192;2022-08-01T08:03:16;12.68;;;7.75;;
35959;SDS011;22043;50.970;7.192;2022-08-01T08:05:41;11.10;;;8.38;;
35959;SDS011;22043;50.970;7.192;2022-08-01T08:08:08;13.30;;;9.35;;
35959;SDS011;22043;50.970;7.192;2022-08-01T08:10:35;11.70;;;7.78;;
35959;SDS011;22043;50.970;7.192;2022-08-01T08:13:01;10.10;;;7.50;;
35959;SDS011;22043;50.970;7.192;2022-08-01T08:15:28;9.82;;;7.43;;
35959;SDS011;22043;50.970;7.192;2022-08-01T08:17:54;10.80;;;7.22;;
35959;SDS011;22043;50.970;7.192;2022-08-01T08:20:20;10.40;;;7.28;;
35959;SDS011;22043;50.970;7.192;2022-08-01T08:22:54;9.68;;;7.38;;
35959;SDS011;22043;50.970;7.192;2022-08-01T08:25:23;10.45;;;7.00;;
35959;SDS011;22043;50.970;7.192;2022-08-01T08:27:49;13.43;;;8.85;;
35959;SDS011;22043;50.970;7.192;2022-08-01T08:30:15;11.50;;;8.20;;
35959;SDS011;22043;50.970;7.192;2022-08-01T08:32:41;10.13;;;7.90;;
35959;SDS011;22043;50.970;7.192;2022-08-01T08:35:07;10.65;;;8.75;;
35959;SDS011;22043;50.970;7.192;2022-08-01T08:37:34;9.95;;;7.53;;
35959;SDS011;22043;50.970;7.192;2022-08-01T08:40:00;9.30;;;6.90;;
35959;SDS011;22043;50.970;7.192;2022-08-01T08:42:26;11.13;;;8.00;;
35959;SDS011;22043;50.970;7.192;2022-08-01T08:44:52;10.95;;;7.28;;
35959;SDS011;22043;50.970;7.192;2022-08-01T08:47:20;10.30;;;7.93;;
35959;SDS011;22043;50.970;7.192;2022-08-01T08:49:48;13.05;;;8.10;;
35959;SDS011;22043;50.970;7.192;2022-08-01T08:52:20;11.40;;;7.80;;
35959;SDS011;22043;50.970;7.192;2022-08-01T08:54:47;12.57;;;7.05;;
35959;SDS011;22043;50.970;7.192;2022-08-01T08:57:14;11.60;;;7.20;;
35959;SDS011;22043;50.970;7.192;2022-08-01T08:59:42;10.38;;;7.28;;
35959;SDS011;22043;50.970;7.192;2022-08-01T09:02:09;12.48;;;7.18;;
35959;SDS011;22043;50.970;7.192;2022-08-01T09:04:35;9.25;;;6.40;;
35959;SDS011;22043;50.970;7.192;2022-08-01T09:07:03;8.43;;;5.40;;
35959;SDS011;22043;50.970;7.192;2022-08-01T09:09:30;7.97;;;5.40;;
35959;SDS011;22043;50.970;7.192;2022-08-01T09:11:56;6.72;;;4.43;;
35959;SDS011;22043;50.970;7.192;2022-08-01T09:14:22;7.32;;;4.38;;
35959;SDS011;22043;50.970;7.192;2022-08-01T09:17:25;9.77;;;4.88;;
35959;SDS011;22043;50.970;7.192;2022-08-01T09:19:52;9.60;;;4.78;;
35959;SDS011;22043;50.970;7.192;2022-08-01T09:22:23;7.38;;;4.40;;
35959;SDS011;22043;50.970;7.192;2022-08-01T09:25:04;7.97;;;4.03;;
35959;SDS011;22043;50.970;7.192;2022-08-01T09:27:31;7.32;;;4.30;;
35959;SDS011;22043;50.970;7.192;2022-08-01T09:32:52;6.78;;;4.05;;
35959;SDS011;22043;50.970;7.192;2022-08-01T09:35:23;6.32;;;4.40;;
35959;SDS011;22043;50.970;7.192;2022-08-01T09:38:16;4.97;;;3.50;;
35959;SDS011;22043;50.970;7.192;2022-08-01T09:40:48;7.10;;;4.18;;
35959;SDS011;22043;50.970;7.192;2022-08-01T09:43:22;6.15;;;3.85;;
35959;SDS011;22043;50.970;7.192;2022-08-01T09:45:50;6.93;;;4.20;;
35959;SDS011;22043;50.970;7.192;2022-08-01T09:48:17;6.38;;;3.65;;
35959;SDS011;22043;50.970;7.192;2022-08-01T09:50:43;6.05;;;3.55;;
35959;SDS011;22043;50.970;7.192;2022-08-01T09:53:13;7.43;;;3.95;;
35959;SDS011;22043;50.970;7.192;2022-08-01T09:55:40;6.68;;;3.70;;
35959;SDS011;22043;50.970;7.192;2022-08-01T09:58:06;5.15;;;3.65;;
35959;SDS011;22043;50.970;7.192;2022-08-01T10:00:32;7.85;;;3.75;;
35959;SDS011;22043;50.970;7.192;2022-08-01T10:02:59;6.83;;;3.90;;
35959;SDS011;22043;50.970;7.192;2022-08-01T10:05:44;4.90;;;3.28;;
35959;SDS011;22043;50.970;7.192;2022-08-01T10:08:10;5.82;;;3.63;;
35959;SDS011;22043;50.970;7.192;2022-08-01T10:10:37;4.72;;;2.90;;
35959;SDS011;22043;50.970;7.192;2022-08-01T10:13:03;6.43;;;3.47;;
35959;SDS011;22043;50.970;7.192;2022-08-01T10:15:29;6.10;;;3.33;;
35959;SDS011;22043;50.970;7.192;2022-08-01T10:17:56;5.78;;;3.88;;
35959;SDS011;22043;50.970;7.192;2022-08-01T10:20:27;6.50;;;3.47;;
35959;SDS011;22043;50.970;7.192;2022-08-01T10:22:55;7.97;;;3.30;;
35959;SDS011;22043;50.970;7.192;2022-08-01T10:25:24;5.35;;;2.70;;
35959;SDS011;22043;50.970;7.192;2022-08-01T10:27:53;6.28;;;2.60;;
35959;SDS011;22043;50.970;7.192;2022-08-01T10:30:21;6.28;;;3.65;;
35959;SDS011;22043;50.970;7.192;2022-08-01T10:32:48;6.82;;;3.42;;
35959;SDS011;22043;50.970;7.192;2022-08-01T10:35:17;7.03;;;3.80;;
35959;SDS011;22043;50.970;7.192;2022-08-01T10:37:46;4.57;;;3.38;;
35959;SDS011;22043;50.970;7.192;2022-08-01T10:40:15;6.88;;;3.60;;
35959;SDS011;22043;50.970;7.192;2022-08-01T10:42:45;5.35;;;2.97;;
35959;SDS011;22043;50.970;7.192;2022-08-01T10:45:14;5.38;;;3.17;;
35959;SDS011;22043;50.970;7.192;2022-08-01T10:50:51;6.10;;;3.00;;
35959;SDS011;22043;50.970;7.192;2022-08-01T10:53:22;5.90;;;3.28;;
35959;SDS011;22043;50.970;7.192;2022-08-01T10:55:50;6.97;;;3.00;;
35959;SDS011;22043;50.970;7.192;2022-08-01T10:58:29;3.75;;;2.65;;
35959;SDS011;22043;50.970;7.192;2022-08-01T11:03:40;4.50;;;2.72;;
35959;SDS011;22043;50.970;7.192;2022-08-01T11:06:24;3.88;;;2.35;;
35959;SDS011;22043;50.970;7.192;2022-08-01T11:09:05;3.92;;;2.53;;
35959;SDS011;22043;50.970;7.192;2022-08-01T11:14:23;4.60;;;2.47;;
35959;SDS011;22043;50.970;7.192;2022-08-01T11:16:49;4.97;;;2.75;;
35959;SDS011;22043;50.970;7.192;2022-08-01T11:19:15;3.63;;;2.38;;
35959;SDS011;22043;50.970;7.192;2022-08-01T11:27:28;3.05;;;2.05;;
35959;SDS011;22043;50.970;7.192;2022-08-01T11:32:50;3.28;;;2.05;;
35959;SDS011;22043;50.970;7.192;2022-08-01T11:35:18;3.63;;;2.25;;
35959;SDS011;22043;50.970;7.192;2022-08-01T11:37:46;3.50;;;2.08;;
35959;SDS011;22043;50.970;7.192;2022-08-01T11:40:22;3.50;;;1.97;;
35959;SDS011;22043;50.970;7.192;2022-08-01T11:42:51;4.05;;;2.40;;
35959;SDS011;22043;50.970;7.192;2022-08-01T11:48:20;4.55;;;2.40;;
35959;SDS011;22043;50.970;7.192;2022-08-01T11:50:53;3.72;;;2.25;;
35959;SDS011;22043;50.970;7.192;2022-08-01T11:53:20;3.42;;;2.13;;
35959;SDS011;22043;50.970;7.192;2022-08-01T11:55:47;3.13;;;2.03;;
35959;SDS011;22043;50.970;7.192;2022-08-01T11:58:20;4.90;;;2.05;;
35959;SDS011;22043;50.970;7.192;2022-08-01T12:00:54;5.10;;;1.98;;
35959;SDS011;22043;50.970;7.192;2022-08-01T12:03:25;3.20;;;2.13;;
35959;SDS011;22043;50.970;7.192;2022-08-01T12:05:52;4.07;;;2.13;;
35959;SDS011;22043;50.970;7.192;2022-08-01T12:08:26;4.17;;;2.00;;
35959;SDS011;22043;50.970;7.192;2022-08-01T12:10:57;3.75;;;2.47;;
35959;SDS011;22043;50.970;7.192;2022-08-01T12:13:24;3.80;;;2.37;;
35959;SDS011;22043;50.970;7.192;2022-08-01T12:15:50;3.47;;;2.65;;
35959;SDS011;22043;50.970;7.192;2022-08-01T12:18:16;4.72;;;2.92;;
35959;SDS011;22043;50.970;7.192;2022-08-01T12:20:43;3.70;;;2.40;;
35959;SDS011;22043;50.970;7.192;2022-08-01T12:23:11;4.65;;;2.10;;
35959;SDS011;22043;50.970;7.192;2022-08-01T12:25:38;3.17;;;2.28;;
35959;SDS011;22043;50.970;7.192;2022-08-01T12:28:06;3.57;;;1.97;;
35959;SDS011;22043;50.970;7.192;2022-08-01T12:30:34;6.38;;;2.10;;
35959;SDS011;22043;50.970;7.192;2022-08-01T12:33:02;4.07;;;2.33;;
35959;SDS011;22043;50.970;7.192;2022-08-01T12:35:35;3.30;;;1.60;;
35959;SDS011;22043;50.970;7.192;2022-08-01T12:38:04;3.45;;;2.00;;
35959;SDS011;22043;50.970;7.192;2022-08-01T12:40:33;3.60;;;1.67;;
35959;SDS011;22043;50.970;7.192;2022-08-01T12:43:01;2.67;;;1.70;;
35959;SDS011;22043;50.970;7.192;2022-08-01T12:45:44;2.70;;;1.63;;
35959;SDS011;22043;50.970;7.192;2022-08-01T12:48:12;3.25;;;1.63;;
35959;SDS011;22043;50.970;7.192;2022-08-01T12:50:40;2.30;;;1.38;;
35959;SDS011;22043;50.970;7.192;2022-08-01T12:53:10;3.10;;;1.60;;
35959;SDS011;22043;50.970;7.192;2022-08-01T12:55:54;2.75;;;1.60;;
35959;SDS011;22043;50.970;7.192;2022-08-01T12:58:20;4.93;;;1.70;;
35959;SDS011;22043;50.970;7.192;2022-08-01T13:00:47;3.20;;;1.70;;
35959;SDS011;22043;50.970;7.192;2022-08-01T13:03:15;2.35;;;1.38;;
35959;SDS011;22043;50.970;7.192;2022-08-01T13:08:29;2.88;;;1.70;;
35959;SDS011;22043;50.970;7.192;2022-08-01T13:11:06;2.28;;;1.50;;
35959;SDS011;22043;50.970;7.192;2022-08-01T13:16:14;3.08;;;1.50;;
35959;SDS011;22043;50.970;7.192;2022-08-01T13:24:00;2.60;;;1.30;;
35959;SDS011;22043;50.970;7.192;2022-08-01T13:32:15;2.03;;;0.95;;
35959;SDS011;22043;50.970;7.192;2022-08-01T13:34:42;1.92;;;0.90;;
35959;SDS011;22043;50.970;7.192;2022-08-01T13:37:08;1.88;;;1.02;;
35959;SDS011;22043;50.970;7.192;2022-08-01T13:39:34;1.55;;;0.90;;
35959;SDS011;22043;50.970;7.192;2022-08-01T13:42:09;1.67;;;0.80;;
35959;SDS011;22043;50.970;7.192;2022-08-01T13:44:36;2.30;;;1.00;;
35959;SDS011;22043;50.970;7.192;2022-08-01T13:47:03;1.88;;;1.20;;
35959;SDS011;22043;50.970;7.192;2022-08-01T13:49:30;2.28;;;0.90;;
35959;SDS011;22043;50.970;7.192;2022-08-01T13:51:56;1.23;;;0.75;;
35959;SDS011;22043;50.970;7.192;2022-08-01T13:54:22;1.67;;;0.90;;
35959;SDS011;22043;50.970;7.192;2022-08-01T13:56:48;1.55;;;0.73;;
35959;SDS011;22043;50.970;7.192;2022-08-01T13:59:14;1.83;;;1.00;;
35959;SDS011;22043;50.970;7.192;2022-08-01T14:01:40;3.88;;;1.48;;
35959;SDS011;22043;50.970;7.192;2022-08-01T14:04:06;3.63;;;0.95;;
35959;SDS011;22043;50.970;7.192;2022-08-01T14:06:32;4.03;;;1.17;;
35959;SDS011;22043;50.970;7.192;2022-08-01T14:08:58;2.75;;;0.98;;
35959;SDS011;22043;50.970;7.192;2022-08-01T14:11:23;3.08;;;1.10;;
35959;SDS011;22043;50.970;7.192;2022-08-01T14:13:49;5.25;;;0.95;;
35959;SDS011;22043;50.970;7.192;2022-08-01T14:16:16;2.13;;;1.00;;
35959;SDS011;22043;50.970;7.192;2022-08-01T14:18:41;3.60;;;1.25;;
35959;SDS011;22043;50.970;7.192;2022-08-01T14:21:07;1.65;;;0.95;;
35959;SDS011;22043;50.970;7.192;2022-08-01T14:23:33;2.97;;;1.00;;
35959;SDS011;22043;50.970;7.192;2022-08-01T14:25:59;1.85;;;1.10;;
35959;SDS011;22043;50.970;7.192;2022-08-01T14:28:24;1.88;;;0.80;;
35959;SDS011;22043;50.970;7.192;2022-08-01T14:33:18;3.38;;;1.38;;
35959;SDS011;22043;50.970;7.192;2022-08-01T14:35:43;7.15;;;2.53;;
35959;SDS011;22043;50.970;7.192;2022-08-01T14:38:09;23.17;;;7.40;;
35959;SDS011;22043;50.970;7.192;2022-08-01T14:40:35;4.72;;;1.95;;
35959;SDS011;22043;50.970;7.192;2022-08-01T14:43:00;15.02;;;5.78;;
35959;SDS011;22043;50.970;7.192;2022-08-01T14:45:26;5.75;;;1.65;;
35959;SDS011;22043;50.970;7.192;2022-08-01T14:47:53;6.60;;;1.98;;
35959;SDS011;22043;50.970;7.192;2022-08-01T14:50:18;2.20;;;1.00;;
35959;SDS011;22043;50.970;7.192;2022-08-01T14:52:44;2.78;;;0.85;;
35959;SDS011;22043;50.970;7.192;2022-08-01T14:55:11;1.75;;;0.68;;
35959;SDS011;22043;50.970;7.192;2022-08-01T14:57:37;3.40;;;0.90;;
35959;SDS011;22043;50.970;7.192;2022-08-01T15:00:04;1.90;;;1.05;;
35959;SDS011;22043;50.970;7.192;2022-08-01T15:02:32;3.03;;;1.30;;
35959;SDS011;22043;50.970;7.192;2022-08-01T15:04:58;2.72;;;1.27;;
35959;SDS011;22043;50.970;7.192;2022-08-01T15:07:24;1.60;;;1.05;;
35959;SDS011;22043;50.970;7.192;2022-08-01T15:09:49;3.30;;;1.10;;
35959;SDS011;22043;50.970;7.192;2022-08-01T15:12:15;2.75;;;1.17;;
35959;SDS011;22043;50.970;7.192;2022-08-01T15:14:40;2.08;;;0.98;;
35959;SDS011;22043;50.970;7.192;2022-08-01T15:17:13;2.72;;;1.23;;
35959;SDS011;22043;50.970;7.192;2022-08-01T15:19:39;2.05;;;0.95;;
35959;SDS011;22043;50.970;7.192;2022-08-01T15:22:04;2.78;;;1.40;;
35959;SDS011;22043;50.970;7.192;2022-08-01T15:24:30;2.38;;;1.30;;
35959;SDS011;22043;50.970;7.192;2022-08-01T15:26:56;5.57;;;1.05;;
35959;SDS011;22043;50.970;7.192;2022-08-01T15:29:22;2.33;;;1.05;;
35959;SDS011;22043;50.970;7.192;2022-08-01T15:31:48;2.28;;;0.88;;
35959;SDS011;22043;50.970;7.192;2022-08-01T15:34:14;2.58;;;1.20;;
35959;SDS011;22043;50.970;7.192;2022-08-01T15:36:40;2.50;;;1.20;;
35959;SDS011;22043;50.970;7.192;2022-08-01T15:39:08;1.85;;;1.00;;
35959;SDS011;22043;50.970;7.192;2022-08-01T15:41:36;3.28;;;1.10;;
35959;SDS011;22043;50.970;7.192;2022-08-01T15:44:02;2.45;;;1.10;;
35959;SDS011;22043;50.970;7.192;2022-08-01T15:46:28;2.60;;;1.20;;
35959;SDS011;22043;50.970;7.192;2022-08-01T15:48:53;2.10;;;1.10;;